sensor_id;sensor_type;location;lat;lon;timestamp;P1;durP1;ratioP1;P2;durP2;ratioP2
18190;SDS011;47004;51.366;12.348;2023-04-24T00:01:41;1.30;;;1.00;;
18190;SDS011;47004;51.366;12.348;2023-04-24T00:03:43;2.73;;;1.03;;
18190;SDS011;47004;51.366;12.348;2023-04-24T00:05:45;0.97;;;0.87;;
18190;SDS011;47004;51.366;12.348;2023-04-24T00:07:47;1.30;;;1.00;;
18190;SDS011;47004;51.366;12.348;2023-04-24T00:09:52;1.23;;;0.90;;
18190;SDS011;47004;51.366;12.348;2023-04-24T00:11:54;2.07;;;1.00;;
18190;SDS011;47004;51.366;12.348;2023-04-24T00:13:56;3.13;;;1.17;;
18190;SDS011;47004;51.366;12.348;2023-04-24T00:15:59;2.10;;;1.00;;
18190;SDS011;47004;51.366;12.348;2023-04-24T00:18:02;1.47;;;1.00;;
18190;SDS011;47004;51.366;12.348;2023-04-24T00:20:04;2.17;;;1.57;;
18190;SDS011;47004;51.366;12.348;2023-04-24T00:22:07;2.00;;;1.40;;
18190;SDS011;47004;51.366;12.348;2023-04-24T00:24:11;1.83;;;1.20;;
18190;SDS011;47004;51.366;12.348;2023-04-24T00:26:13;1.20;;;1.00;;
18190;SDS011;47004;51.366;12.348;2023-04-24T00:28:15;1.57;;;1.17;;
18190;SDS011;47004;51.366;12.348;2023-04-24T00:30:17;2.33;;;1.60;;
18190;SDS011;47004;51.366;12.348;2023-04-24T00:32:19;1.53;;;1.30;;
18190;SDS011;47004;51.366;12.348;2023-04-24T00:34:22;1.90;;;1.30;;
18190;SDS011;47004;51.366;12.348;2023-04-24T00:36:24;1.87;;;1.30;;
18190;SDS011;47004;51.366;12.348;2023-04-24T00:38:27;3.63;;;1.40;;
18190;SDS011;47004;51.366;12.348;2023-04-24T00:40:28;1.23;;;1.10;;
18190;SDS011;47004;51.366;12.348;2023-04-24T00:42:31;1.37;;;1.13;;
18190;SDS011;47004;51.366;12.348;2023-04-24T00:44:33;3.00;;;1.30;;
18190;SDS011;47004;51.366;12.348;2023-04-24T00:46:35;1.10;;;1.00;;
18190;SDS011;47004;51.366;12.348;2023-04-24T00:48:37;1.60;;;1.40;;
18190;SDS011;47004;51.366;12.348;2023-04-24T00:50:41;3.00;;;1.20;;
18190;SDS011;47004;51.366;12.348;2023-04-24T00:52:43;1.60;;;1.07;;
18190;SDS011;47004;51.366;12.348;2023-04-24T00:54:45;2.20;;;1.10;;
18190;SDS011;47004;51.366;12.348;2023-04-24T00:56:47;1.60;;;1.20;;
18190;SDS011;47004;51.366;12.348;2023-04-24T00:58:51;1.77;;;1.10;;
18190;SDS011;47004;51.366;12.348;2023-04-24T01:00:53;1.10;;;1.00;;
18190;SDS011;47004;51.366;12.348;2023-04-24T01:02:57;2.60;;;1.07;;
18190;SDS011;47004;51.366;12.348;2023-04-24T01:05:02;1.87;;;1.30;;
18190;SDS011;47004;51.366;12.348;2023-04-24T01:07:06;1.10;;;1.00;;
18190;SDS011;47004;51.366;12.348;2023-04-24T01:09:11;2.67;;;1.17;;
18190;SDS011;47004;51.366;12.348;2023-04-24T01:11:14;1.07;;;0.87;;
18190;SDS011;47004;51.366;12.348;2023-04-24T01:13:16;1.90;;;1.10;;
18190;SDS011;47004;51.366;12.348;2023-04-24T01:15:19;1.47;;;1.00;;
18190;SDS011;47004;51.366;12.348;2023-04-24T01:17:21;1.47;;;0.90;;
18190;SDS011;47004;51.366;12.348;2023-04-24T01:19:22;3.27;;;1.10;;
18190;SDS011;47004;51.366;12.348;2023-04-24T01:21:25;3.17;;;1.00;;
18190;SDS011;47004;51.366;12.348;2023-04-24T01:23:31;2.13;;;1.67;;
18190;SDS011;47004;51.366;12.348;2023-04-24T01:25:33;1.00;;;0.90;;
18190;SDS011;47004;51.366;12.348;2023-04-24T01:27:36;1.83;;;0.90;;
18190;SDS011;47004;51.366;12.348;2023-04-24T01:29:38;0.93;;;0.70;;
18190;SDS011;47004;51.366;12.348;2023-04-24T01:31:40;1.47;;;0.80;;
18190;SDS011;47004;51.366;12.348;2023-04-24T01:33:42;2.80;;;0.90;;
18190;SDS011;47004;51.366;12.348;2023-04-24T01:35:44;1.70;;;0.80;;
18190;SDS011;47004;51.366;12.348;2023-04-24T01:37:46;0.83;;;0.70;;
18190;SDS011;47004;51.366;12.348;2023-04-24T01:39:50;1.27;;;0.70;;
18190;SDS011;47004;51.366;12.348;2023-04-24T01:41:52;1.53;;;1.00;;
18190;SDS011;47004;51.366;12.348;2023-04-24T01:43:54;0.80;;;0.70;;
18190;SDS011;47004;51.366;12.348;2023-04-24T01:45:55;1.33;;;0.87;;
18190;SDS011;47004;51.366;12.348;2023-04-24T01:47:57;1.53;;;0.70;;
18190;SDS011;47004;51.366;12.348;2023-04-24T01:50:01;0.97;;;0.60;;
18190;SDS011;47004;51.366;12.348;2023-04-24T01:52:03;1.20;;;0.80;;
18190;SDS011;47004;51.366;12.348;2023-04-24T01:54:05;1.13;;;0.60;;
18190;SDS011;47004;51.366;12.348;2023-04-24T01:56:09;0.90;;;0.60;;
18190;SDS011;47004;51.366;12.348;2023-04-24T01:58:11;1.40;;;0.87;;
18190;SDS011;47004;51.366;12.348;2023-04-24T02:00:13;1.53;;;0.80;;
18190;SDS011;47004;51.366;12.348;2023-04-24T02:02:15;0.70;;;0.70;;
18190;SDS011;47004;51.366;12.348;2023-04-24T02:04:17;0.80;;;0.70;;
18190;SDS011;47004;51.366;12.348;2023-04-24T02:06:19;1.20;;;0.70;;
18190;SDS011;47004;51.366;12.348;2023-04-24T02:08:21;2.60;;;0.90;;
18190;SDS011;47004;51.366;12.348;2023-04-24T02:10:23;1.63;;;0.80;;
18190;SDS011;47004;51.366;12.348;2023-04-24T02:12:26;1.13;;;0.70;;
18190;SDS011;47004;51.366;12.348;2023-04-24T02:14:28;2.37;;;0.80;;
18190;SDS011;47004;51.366;12.348;2023-04-24T02:16:30;1.80;;;1.00;;
18190;SDS011;47004;51.366;12.348;2023-04-24T02:18:33;0.97;;;0.67;;
18190;SDS011;47004;51.366;12.348;2023-04-24T02:20:35;1.97;;;0.87;;
18190;SDS011;47004;51.366;12.348;2023-04-24T02:22:37;1.70;;;0.70;;
18190;SDS011;47004;51.366;12.348;2023-04-24T02:24:39;1.53;;;0.90;;
18190;SDS011;47004;51.366;12.348;2023-04-24T02:26:41;0.80;;;0.67;;
18190;SDS011;47004;51.366;12.348;2023-04-24T02:28:44;2.00;;;1.10;;
18190;SDS011;47004;51.366;12.348;2023-04-24T02:30:46;2.70;;;0.90;;
18190;SDS011;47004;51.366;12.348;2023-04-24T02:32:48;2.03;;;1.20;;
18190;SDS011;47004;51.366;12.348;2023-04-24T02:34:50;1.53;;;1.13;;
18190;SDS011;47004;51.366;12.348;2023-04-24T02:36:54;2.43;;;1.20;;
18190;SDS011;47004;51.366;12.348;2023-04-24T02:38:56;2.70;;;1.13;;
18190;SDS011;47004;51.366;12.348;2023-04-24T02:40:58;1.53;;;1.20;;
18190;SDS011;47004;51.366;12.348;2023-04-24T02:43:00;3.73;;;1.10;;
18190;SDS011;47004;51.366;12.348;2023-04-24T02:45:04;1.20;;;0.83;;
18190;SDS011;47004;51.366;12.348;2023-04-24T02:47:06;1.80;;;0.80;;
18190;SDS011;47004;51.366;12.348;2023-04-24T02:49:08;1.57;;;0.90;;
18190;SDS011;47004;51.366;12.348;2023-04-24T02:51:12;1.57;;;1.00;;
18190;SDS011;47004;51.366;12.348;2023-04-24T02:53:13;1.73;;;0.93;;
18190;SDS011;47004;51.366;12.348;2023-04-24T02:55:15;1.37;;;1.00;;
18190;SDS011;47004;51.366;12.348;2023-04-24T02:57:17;2.10;;;1.00;;
18190;SDS011;47004;51.366;12.348;2023-04-24T02:59:19;3.10;;;1.00;;
18190;SDS011;47004;51.366;12.348;2023-04-24T03:01:22;3.37;;;0.93;;
18190;SDS011;47004;51.366;12.348;2023-04-24T03:03:25;1.10;;;1.00;;
18190;SDS011;47004;51.366;12.348;2023-04-24T03:05:27;1.60;;;0.90;;
18190;SDS011;47004;51.366;12.348;2023-04-24T03:07:28;3.20;;;0.93;;
18190;SDS011;47004;51.366;12.348;2023-04-24T03:09:31;1.40;;;1.00;;
18190;SDS011;47004;51.366;12.348;2023-04-24T03:11:32;2.27;;;0.97;;
18190;SDS011;47004;51.366;12.348;2023-04-24T03:13:34;1.97;;;0.90;;
18190;SDS011;47004;51.366;12.348;2023-04-24T03:15:36;1.73;;;1.03;;
18190;SDS011;47004;51.366;12.348;2023-04-24T03:17:39;1.50;;;0.90;;
18190;SDS011;47004;51.366;12.348;2023-04-24T03:19:41;1.23;;;0.90;;
18190;SDS011;47004;51.366;12.348;2023-04-24T03:21:43;1.00;;;0.77;;
18190;SDS011;47004;51.366;12.348;2023-04-24T03:23:45;2.27;;;0.90;;
18190;SDS011;47004;51.366;12.348;2023-04-24T03:25:47;1.20;;;0.70;;
18190;SDS011;47004;51.366;12.348;2023-04-24T03:27:49;1.47;;;1.03;;
18190;SDS011;47004;51.366;12.348;2023-04-24T03:29:51;1.53;;;0.90;;
18190;SDS011;47004;51.366;12.348;2023-04-24T03:31:55;1.27;;;1.00;;
18190;SDS011;47004;51.366;12.348;2023-04-24T03:33:58;0.70;;;0.70;;
18190;SDS011;47004;51.366;12.348;2023-04-24T03:36:00;1.40;;;0.80;;
18190;SDS011;47004;51.366;12.348;2023-04-24T03:38:02;1.07;;;0.90;;
18190;SDS011;47004;51.366;12.348;2023-04-24T03:40:05;1.40;;;0.70;;
18190;SDS011;47004;51.366;12.348;2023-04-24T03:42:08;2.07;;;0.90;;
18190;SDS011;47004;51.366;12.348;2023-04-24T03:44:10;1.30;;;0.57;;
18190;SDS011;47004;51.366;12.348;2023-04-24T03:46:11;0.70;;;0.70;;
18190;SDS011;47004;51.366;12.348;2023-04-24T03:48:16;1.10;;;0.80;;
18190;SDS011;47004;51.366;12.348;2023-04-24T03:50:20;1.20;;;0.70;;
18190;SDS011;47004;51.366;12.348;2023-04-24T03:52:22;1.23;;;0.83;;
18190;SDS011;47004;51.366;12.348;2023-04-24T03:54:24;1.17;;;0.77;;
18190;SDS011;47004;51.366;12.348;2023-04-24T03:56:27;2.07;;;0.70;;
18190;SDS011;47004;51.366;12.348;2023-04-24T03:58:28;2.57;;;0.90;;
18190;SDS011;47004;51.366;12.348;2023-04-24T04:00:30;1.30;;;0.80;;
18190;SDS011;47004;51.366;12.348;2023-04-24T04:02:33;2.37;;;0.90;;
18190;SDS011;47004;51.366;12.348;2023-04-24T04:04:35;1.97;;;0.80;;
18190;SDS011;47004;51.366;12.348;2023-04-24T04:06:38;1.97;;;1.03;;
18190;SDS011;47004;51.366;12.348;2023-04-24T04:08:40;1.40;;;0.90;;
18190;SDS011;47004;51.366;12.348;2023-04-24T04:10:42;1.87;;;1.00;;
18190;SDS011;47004;51.366;12.348;2023-04-24T04:12:44;3.60;;;1.20;;
18190;SDS011;47004;51.366;12.348;2023-04-24T04:14:46;1.00;;;0.80;;
18190;SDS011;47004;51.366;12.348;2023-04-24T04:16:47;1.63;;;0.90;;
18190;SDS011;47004;51.366;12.348;2023-04-24T04:18:49;1.17;;;0.90;;
18190;SDS011;47004;51.366;12.348;2023-04-24T04:20:51;2.33;;;1.03;;
18190;SDS011;47004;51.366;12.348;2023-04-24T04:22:54;1.60;;;0.97;;
18190;SDS011;47004;51.366;12.348;2023-04-24T04:24:56;2.63;;;1.20;;
18190;SDS011;47004;51.366;12.348;2023-04-24T04:26:58;4.83;;;1.40;;
18190;SDS011;47004;51.366;12.348;2023-04-24T04:29:00;3.17;;;1.10;;
18190;SDS011;47004;51.366;12.348;2023-04-24T04:31:03;1.10;;;1.00;;
18190;SDS011;47004;51.366;12.348;2023-04-24T04:33:05;1.70;;;1.07;;
18190;SDS011;47004;51.366;12.348;2023-04-24T04:35:08;1.33;;;1.00;;
18190;SDS011;47004;51.366;12.348;2023-04-24T04:37:10;2.30;;;1.17;;
18190;SDS011;47004;51.366;12.348;2023-04-24T04:39:14;1.40;;;1.10;;
18190;SDS011;47004;51.366;12.348;2023-04-24T04:41:16;1.30;;;1.20;;
18190;SDS011;47004;51.366;12.348;2023-04-24T04:43:18;2.53;;;1.07;;
18190;SDS011;47004;51.366;12.348;2023-04-24T04:45:20;3.87;;;1.10;;
18190;SDS011;47004;51.366;12.348;2023-04-24T04:47:24;1.93;;;1.10;;
18190;SDS011;47004;51.366;12.348;2023-04-24T04:49:26;3.30;;;1.30;;
18190;SDS011;47004;51.366;12.348;2023-04-24T04:51:28;1.20;;;1.10;;
18190;SDS011;47004;51.366;12.348;2023-04-24T04:53:31;1.40;;;1.30;;
18190;SDS011;47004;51.366;12.348;2023-04-24T04:55:34;1.47;;;1.13;;
18190;SDS011;47004;51.366;12.348;2023-04-24T04:57:36;3.00;;;1.50;;
18190;SDS011;47004;51.366;12.348;2023-04-24T04:59:38;2.83;;;1.27;;
18190;SDS011;47004;51.366;12.348;2023-04-24T05:01:41;2.37;;;1.50;;
18190;SDS011;47004;51.366;12.348;2023-04-24T05:03:43;3.40;;;0.90;;
18190;SDS011;47004;51.366;12.348;2023-04-24T05:05:45;2.17;;;1.00;;
18190;SDS011;47004;51.366;12.348;2023-04-24T05:07:46;3.87;;;1.17;;
18190;SDS011;47004;51.366;12.348;2023-04-24T05:09:48;1.13;;;1.00;;
18190;SDS011;47004;51.366;12.348;2023-04-24T05:11:53;3.27;;;1.30;;
18190;SDS011;47004;51.366;12.348;2023-04-24T05:13:55;2.77;;;1.07;;
18190;SDS011;47004;51.366;12.348;2023-04-24T05:15:57;2.33;;;1.03;;
18190;SDS011;47004;51.366;12.348;2023-04-24T05:18:02;2.10;;;1.00;;
18190;SDS011;47004;51.366;12.348;2023-04-24T05:20:05;1.83;;;1.20;;
18190;SDS011;47004;51.366;12.348;2023-04-24T05:22:08;3.87;;;1.40;;
18190;SDS011;47004;51.366;12.348;2023-04-24T05:24:10;2.70;;;1.00;;
18190;SDS011;47004;51.366;12.348;2023-04-24T05:26:12;3.77;;;1.13;;
18190;SDS011;47004;51.366;12.348;2023-04-24T05:28:20;4.30;;;1.03;;
18190;SDS011;47004;51.366;12.348;2023-04-24T05:30:22;1.80;;;1.00;;
18190;SDS011;47004;51.366;12.348;2023-04-24T05:32:24;2.07;;;0.87;;
18190;SDS011;47004;51.366;12.348;2023-04-24T05:34:27;3.57;;;1.50;;
18190;SDS011;47004;51.366;12.348;2023-04-24T05:36:28;4.57;;;1.30;;
18190;SDS011;47004;51.366;12.348;2023-04-24T05:38:30;1.63;;;1.17;;
18190;SDS011;47004;51.366;12.348;2023-04-24T05:40:32;1.73;;;1.10;;
18190;SDS011;47004;51.366;12.348;2023-04-24T05:42:34;2.30;;;1.20;;
18190;SDS011;47004;51.366;12.348;2023-04-24T05:44:38;3.33;;;1.20;;
18190;SDS011;47004;51.366;12.348;2023-04-24T05:46:39;2.70;;;1.10;;
18190;SDS011;47004;51.366;12.348;2023-04-24T05:48:41;5.17;;;1.50;;
18190;SDS011;47004;51.366;12.348;2023-04-24T05:50:43;1.50;;;1.10;;
18190;SDS011;47004;51.366;12.348;2023-04-24T05:52:47;5.30;;;1.60;;
18190;SDS011;47004;51.366;12.348;2023-04-24T05:54:49;4.03;;;1.20;;
18190;SDS011;47004;51.366;12.348;2023-04-24T05:56:51;3.20;;;1.10;;
18190;SDS011;47004;51.366;12.348;2023-04-24T05:58:54;1.80;;;1.17;;
18190;SDS011;47004;51.366;12.348;2023-04-24T06:00:57;1.57;;;1.00;;
18190;SDS011;47004;51.366;12.348;2023-04-24T06:03:01;2.47;;;0.93;;
18190;SDS011;47004;51.366;12.348;2023-04-24T06:05:04;5.53;;;1.30;;
18190;SDS011;47004;51.366;12.348;2023-04-24T06:07:06;3.77;;;1.17;;
18190;SDS011;47004;51.366;12.348;2023-04-24T06:09:08;1.30;;;1.10;;
18190;SDS011;47004;51.366;12.348;2023-04-24T06:11:10;4.53;;;1.00;;
18190;SDS011;47004;51.366;12.348;2023-04-24T06:13:12;3.07;;;1.00;;
18190;SDS011;47004;51.366;12.348;2023-04-24T06:15:14;1.03;;;0.70;;
18190;SDS011;47004;51.366;12.348;2023-04-24T06:17:17;1.97;;;1.10;;
18190;SDS011;47004;51.366;12.348;2023-04-24T06:19:19;1.00;;;0.90;;
18190;SDS011;47004;51.366;12.348;2023-04-24T06:21:21;1.93;;;0.90;;
18190;SDS011;47004;51.366;12.348;2023-04-24T06:23:23;2.53;;;0.70;;
18190;SDS011;47004;51.366;12.348;2023-04-24T06:25:25;1.37;;;0.77;;
18190;SDS011;47004;51.366;12.348;2023-04-24T06:27:27;2.53;;;1.00;;
18190;SDS011;47004;51.366;12.348;2023-04-24T06:29:29;1.60;;;1.00;;
18190;SDS011;47004;51.366;12.348;2023-04-24T06:31:31;3.83;;;1.10;;
18190;SDS011;47004;51.366;12.348;2023-04-24T06:33:38;3.03;;;1.03;;
18190;SDS011;47004;51.366;12.348;2023-04-24T06:35:40;3.07;;;0.90;;
18190;SDS011;47004;51.366;12.348;2023-04-24T06:37:42;4.27;;;1.00;;
18190;SDS011;47004;51.366;12.348;2023-04-24T06:39:44;3.00;;;0.80;;
18190;SDS011;47004;51.366;12.348;2023-04-24T06:41:46;3.47;;;1.03;;
18190;SDS011;47004;51.366;12.348;2023-04-24T06:43:48;3.13;;;1.10;;
18190;SDS011;47004;51.366;12.348;2023-04-24T06:45:50;1.97;;;0.90;;
18190;SDS011;47004;51.366;12.348;2023-04-24T06:47:52;2.63;;;0.87;;
18190;SDS011;47004;51.366;12.348;2023-04-24T06:49:55;3.17;;;1.10;;
18190;SDS011;47004;51.366;12.348;2023-04-24T06:51:57;1.30;;;0.90;;
18190;SDS011;47004;51.366;12.348;2023-04-24T06:53:59;1.57;;;0.90;;
18190;SDS011;47004;51.366;12.348;2023-04-24T06:56:01;3.77;;;1.00;;
18190;SDS011;47004;51.366;12.348;2023-04-24T06:58:04;1.30;;;1.10;;
18190;SDS011;47004;51.366;12.348;2023-04-24T07:00:06;2.90;;;1.30;;
18190;SDS011;47004;51.366;12.348;2023-04-24T07:02:09;2.67;;;1.00;;
18190;SDS011;47004;51.366;12.348;2023-04-24T07:04:11;1.50;;;0.93;;
18190;SDS011;47004;51.366;12.348;2023-04-24T07:06:15;3.60;;;1.20;;
18190;SDS011;47004;51.366;12.348;2023-04-24T07:08:18;3.70;;;1.10;;
18190;SDS011;47004;51.366;12.348;2023-04-24T07:10:21;4.73;;;0.90;;
18190;SDS011;47004;51.366;12.348;2023-04-24T07:12:23;1.47;;;0.90;;
18190;SDS011;47004;51.366;12.348;2023-04-24T07:14:25;4.10;;;1.17;;
18190;SDS011;47004;51.366;12.348;2023-04-24T07:16:27;2.97;;;0.90;;
18190;SDS011;47004;51.366;12.348;2023-04-24T07:18:30;1.50;;;1.20;;
18190;SDS011;47004;51.366;12.348;2023-04-24T07:20:32;3.10;;;1.10;;
18190;SDS011;47004;51.366;12.348;2023-04-24T07:22:36;1.30;;;0.80;;
18190;SDS011;47004;51.366;12.348;2023-04-24T07:24:38;2.23;;;0.97;;
18190;SDS011;47004;51.366;12.348;2023-04-24T07:26:40;1.83;;;0.80;;
18190;SDS011;47004;51.366;12.348;2023-04-24T07:28:42;2.80;;;1.00;;
18190;SDS011;47004;51.366;12.348;2023-04-24T07:30:44;1.30;;;0.87;;
18190;SDS011;47004;51.366;12.348;2023-04-24T07:32:46;1.60;;;1.00;;
18190;SDS011;47004;51.366;12.348;2023-04-24T07:34:48;3.87;;;1.00;;
18190;SDS011;47004;51.366;12.348;2023-04-24T07:36:50;2.80;;;1.00;;
18190;SDS011;47004;51.366;12.348;2023-04-24T07:38:53;2.70;;;1.17;;
18190;SDS011;47004;51.366;12.348;2023-04-24T07:40:56;2.50;;;1.13;;
18190;SDS011;47004;51.366;12.348;2023-04-24T07:42:58;2.77;;;1.10;;
18190;SDS011;47004;51.366;12.348;2023-04-24T07:45:00;3.33;;;1.10;;
18190;SDS011;47004;51.366;12.348;2023-04-24T07:47:02;3.53;;;0.80;;
18190;SDS011;47004;51.366;12.348;2023-04-24T07:49:04;2.37;;;0.83;;
18190;SDS011;47004;51.366;12.348;2023-04-24T07:51:06;1.77;;;0.80;;
18190;SDS011;47004;51.366;12.348;2023-04-24T07:53:10;2.37;;;0.83;;
18190;SDS011;47004;51.366;12.348;2023-04-24T07:55:13;2.67;;;1.03;;
18190;SDS011;47004;51.366;12.348;2023-04-24T07:57:15;4.13;;;1.00;;
18190;SDS011;47004;51.366;12.348;2023-04-24T07:59:17;2.73;;;1.10;;
18190;SDS011;47004;51.366;12.348;2023-04-24T08:01:19;2.20;;;0.87;;
18190;SDS011;47004;51.366;12.348;2023-04-24T08:03:21;1.23;;;0.80;;
18190;SDS011;47004;51.366;12.348;2023-04-24T08:05:24;1.80;;;0.80;;
18190;SDS011;47004;51.366;12.348;2023-04-24T08:07:28;1.97;;;1.20;;
18190;SDS011;47004;51.366;12.348;2023-04-24T08:09:30;3.03;;;0.87;;
18190;SDS011;47004;51.366;12.348;2023-04-24T08:11:33;3.30;;;0.90;;
18190;SDS011;47004;51.366;12.348;2023-04-24T08:13:35;2.20;;;0.80;;
18190;SDS011;47004;51.366;12.348;2023-04-24T08:15:37;2.60;;;0.83;;
18190;SDS011;47004;51.366;12.348;2023-04-24T08:17:39;1.77;;;0.50;;
18190;SDS011;47004;51.366;12.348;2023-04-24T08:19:41;1.90;;;0.90;;
18190;SDS011;47004;51.366;12.348;2023-04-24T08:21:47;0.60;;;0.57;;
18190;SDS011;47004;51.366;12.348;2023-04-24T08:23:49;2.73;;;1.47;;
18190;SDS011;47004;51.366;12.348;2023-04-24T08:25:53;1.23;;;0.80;;
18190;SDS011;47004;51.366;12.348;2023-04-24T08:27:59;2.63;;;0.80;;
18190;SDS011;47004;51.366;12.348;2023-04-24T08:30:01;2.07;;;0.70;;
18190;SDS011;47004;51.366;12.348;2023-04-24T08:32:03;0.90;;;0.60;;
18190;SDS011;47004;51.366;12.348;2023-04-24T08:34:04;1.97;;;0.70;;
18190;SDS011;47004;51.366;12.348;2023-04-24T08:36:06;1.03;;;0.50;;
18190;SDS011;47004;51.366;12.348;2023-04-24T08:38:08;2.30;;;0.70;;
18190;SDS011;47004;51.366;12.348;2023-04-24T08:40:11;1.20;;;0.83;;
18190;SDS011;47004;51.366;12.348;2023-04-24T08:42:15;0.50;;;0.40;;
18190;SDS011;47004;51.366;12.348;2023-04-24T08:44:20;1.80;;;0.60;;
18190;SDS011;47004;51.366;12.348;2023-04-24T08:46:22;2.30;;;0.40;;
18190;SDS011;47004;51.366;12.348;2023-04-24T08:48:25;2.40;;;0.73;;
18190;SDS011;47004;51.366;12.348;2023-04-24T08:50:28;1.00;;;0.50;;
18190;SDS011;47004;51.366;12.348;2023-04-24T08:52:32;1.43;;;0.60;;
18190;SDS011;47004;51.366;12.348;2023-04-24T08:54:34;0.73;;;0.50;;
18190;SDS011;47004;51.366;12.348;2023-04-24T08:56:38;0.70;;;0.50;;
18190;SDS011;47004;51.366;12.348;2023-04-24T08:58:41;1.17;;;0.60;;
18190;SDS011;47004;51.366;12.348;2023-04-24T09:00:45;0.50;;;0.40;;
18190;SDS011;47004;51.366;12.348;2023-04-24T09:02:48;0.73;;;0.40;;
18190;SDS011;47004;51.366;12.348;2023-04-24T09:04:51;0.93;;;0.60;;
18190;SDS011;47004;51.366;12.348;2023-04-24T09:06:55;0.73;;;0.40;;
18190;SDS011;47004;51.366;12.348;2023-04-24T09:08:58;0.50;;;0.40;;
18190;SDS011;47004;51.366;12.348;2023-04-24T09:11:03;1.17;;;0.60;;
18190;SDS011;47004;51.366;12.348;2023-04-24T09:13:08;0.60;;;0.60;;
18190;SDS011;47004;51.366;12.348;2023-04-24T09:15:10;2.07;;;0.60;;
18190;SDS011;47004;51.366;12.348;2023-04-24T09:17:14;2.53;;;0.70;;
18190;SDS011;47004;51.366;12.348;2023-04-24T09:19:16;0.50;;;0.40;;
18190;SDS011;47004;51.366;12.348;2023-04-24T09:21:19;0.70;;;0.50;;
18190;SDS011;47004;51.366;12.348;2023-04-24T09:23:22;1.93;;;0.83;;
18190;SDS011;47004;51.366;12.348;2023-04-24T09:25:30;0.70;;;0.50;;
18190;SDS011;47004;51.366;12.348;2023-04-24T09:27:33;4.03;;;0.93;;
18190;SDS011;47004;51.366;12.348;2023-04-24T09:29:36;0.67;;;0.50;;
18190;SDS011;47004;51.366;12.348;2023-04-24T09:31:38;1.77;;;0.50;;
18190;SDS011;47004;51.366;12.348;2023-04-24T09:33:41;0.63;;;0.40;;
18190;SDS011;47004;51.366;12.348;2023-04-24T09:35:56;1.47;;;0.70;;
18190;SDS011;47004;51.366;12.348;2023-04-24T09:37:59;0.60;;;0.60;;
18190;SDS011;47004;51.366;12.348;2023-04-24T09:40:07;3.50;;;0.73;;
18190;SDS011;47004;51.366;12.348;2023-04-24T09:42:19;1.23;;;0.50;;
18190;SDS011;47004;51.366;12.348;2023-04-24T09:44:21;7.30;;;0.80;;
18190;SDS011;47004;51.366;12.348;2023-04-24T09:46:29;1.53;;;0.57;;
18190;SDS011;47004;51.366;12.348;2023-04-24T09:48:32;1.23;;;0.50;;
18190;SDS011;47004;51.366;12.348;2023-04-24T09:50:36;1.73;;;0.53;;
18190;SDS011;47004;51.366;12.348;2023-04-24T09:52:42;0.80;;;0.60;;
18190;SDS011;47004;51.366;12.348;2023-04-24T09:54:46;0.57;;;0.57;;
18190;SDS011;47004;51.366;12.348;2023-04-24T09:56:54;0.60;;;0.50;;
18190;SDS011;47004;51.366;12.348;2023-04-24T09:59:03;0.97;;;0.60;;
18190;SDS011;47004;51.366;12.348;2023-04-24T10:01:06;3.43;;;0.80;;
18190;SDS011;47004;51.366;12.348;2023-04-24T10:03:08;1.93;;;0.70;;
18190;SDS011;47004;51.366;12.348;2023-04-24T10:05:11;0.90;;;0.63;;
18190;SDS011;47004;51.366;12.348;2023-04-24T10:07:14;2.87;;;0.70;;
18190;SDS011;47004;51.366;12.348;2023-04-24T10:09:16;1.40;;;0.70;;
18190;SDS011;47004;51.366;12.348;2023-04-24T10:11:19;0.87;;;0.50;;
18190;SDS011;47004;51.366;12.348;2023-04-24T10:13:21;1.80;;;0.70;;
18190;SDS011;47004;51.366;12.348;2023-04-24T10:15:23;4.10;;;0.60;;
18190;SDS011;47004;51.366;12.348;2023-04-24T10:17:27;0.53;;;0.50;;
18190;SDS011;47004;51.366;12.348;2023-04-24T10:19:30;0.90;;;0.60;;
18190;SDS011;47004;51.366;12.348;2023-04-24T10:21:33;3.07;;;0.70;;
18190;SDS011;47004;51.366;12.348;2023-04-24T10:23:37;3.27;;;0.43;;
18190;SDS011;47004;51.366;12.348;2023-04-24T10:25:40;2.17;;;0.60;;
18190;SDS011;47004;51.366;12.348;2023-04-24T10:27:43;1.37;;;0.67;;
18190;SDS011;47004;51.366;12.348;2023-04-24T10:29:46;1.37;;;0.70;;
18190;SDS011;47004;51.366;12.348;2023-04-24T10:31:50;4.37;;;0.60;;
18190;SDS011;47004;51.366;12.348;2023-04-24T10:33:52;2.73;;;0.67;;
18190;SDS011;47004;51.366;12.348;2023-04-24T10:35:56;1.87;;;0.77;;
18190;SDS011;47004;51.366;12.348;2023-04-24T10:38:01;0.97;;;0.73;;
18190;SDS011;47004;51.366;12.348;2023-04-24T10:40:08;2.43;;;0.70;;
18190;SDS011;47004;51.366;12.348;2023-04-24T10:42:13;0.70;;;0.70;;
18190;SDS011;47004;51.366;12.348;2023-04-24T10:44:16;2.43;;;0.63;;
18190;SDS011;47004;51.366;12.348;2023-04-24T10:46:19;0.83;;;0.60;;
18190;SDS011;47004;51.366;12.348;2023-04-24T10:48:26;2.13;;;0.50;;
18190;SDS011;47004;51.366;12.348;2023-04-24T10:50:29;0.93;;;0.60;;
18190;SDS011;47004;51.366;12.348;2023-04-24T10:52:45;1.57;;;0.80;;
18190;SDS011;47004;51.366;12.348;2023-04-24T10:54:48;0.77;;;0.50;;
18190;SDS011;47004;51.366;12.348;2023-04-24T10:56:52;1.27;;;0.50;;
18190;SDS011;47004;51.366;12.348;2023-04-24T10:58:56;0.80;;;0.53;;
18190;SDS011;47004;51.366;12.348;2023-04-24T11:00:59;2.30;;;0.80;;
18190;SDS011;47004;51.366;12.348;2023-04-24T11:03:01;0.60;;;0.60;;
18190;SDS011;47004;51.366;12.348;2023-04-24T11:05:06;1.27;;;0.60;;
18190;SDS011;47004;51.366;12.348;2023-04-24T11:07:11;0.70;;;0.50;;
18190;SDS011;47004;51.366;12.348;2023-04-24T11:09:14;1.90;;;0.60;;
18190;SDS011;47004;51.366;12.348;2023-04-24T11:11:17;1.93;;;0.53;;
18190;SDS011;47004;51.366;12.348;2023-04-24T11:13:22;1.73;;;0.80;;
18190;SDS011;47004;51.366;12.348;2023-04-24T11:15:25;3.23;;;0.70;;
18190;SDS011;47004;51.366;12.348;2023-04-24T11:17:28;0.67;;;0.60;;
18190;SDS011;47004;51.366;12.348;2023-04-24T11:19:31;0.87;;;0.70;;
18190;SDS011;47004;51.366;12.348;2023-04-24T11:21:43;1.73;;;0.83;;
18190;SDS011;47004;51.366;12.348;2023-04-24T11:23:46;0.60;;;0.60;;
18190;SDS011;47004;51.366;12.348;2023-04-24T11:25:52;1.10;;;0.80;;
18190;SDS011;47004;51.366;12.348;2023-04-24T11:28:14;2.67;;;0.90;;
18190;SDS011;47004;51.366;12.348;2023-04-24T11:30:19;2.80;;;0.80;;
18190;SDS011;47004;51.366;12.348;2023-04-24T11:32:25;1.00;;;0.60;;
18190;SDS011;47004;51.366;12.348;2023-04-24T11:34:28;0.90;;;0.70;;
18190;SDS011;47004;51.366;12.348;2023-04-24T11:36:33;1.13;;;0.70;;
18190;SDS011;47004;51.366;12.348;2023-04-24T11:38:39;0.80;;;0.60;;
18190;SDS011;47004;51.366;12.348;2023-04-24T11:40:41;1.97;;;0.70;;
18190;SDS011;47004;51.366;12.348;2023-04-24T11:42:44;1.67;;;0.67;;
18190;SDS011;47004;51.366;12.348;2023-04-24T11:44:47;2.23;;;0.70;;
18190;SDS011;47004;51.366;12.348;2023-04-24T11:46:51;1.13;;;0.70;;
18190;SDS011;47004;51.366;12.348;2023-04-24T11:48:53;0.87;;;0.50;;
18190;SDS011;47004;51.366;12.348;2023-04-24T11:50:55;5.03;;;0.73;;
18190;SDS011;47004;51.366;12.348;2023-04-24T11:52:57;1.30;;;0.80;;
18190;SDS011;47004;51.366;12.348;2023-04-24T11:55:00;4.53;;;0.50;;
18190;SDS011;47004;51.366;12.348;2023-04-24T11:57:03;1.27;;;0.60;;
18190;SDS011;47004;51.366;12.348;2023-04-24T11:59:06;0.80;;;0.70;;
18190;SDS011;47004;51.366;12.348;2023-04-24T12:01:09;2.40;;;0.80;;
18190;SDS011;47004;51.366;12.348;2023-04-24T12:03:12;4.47;;;0.80;;
18190;SDS011;47004;51.366;12.348;2023-04-24T12:05:18;0.80;;;0.60;;
18190;SDS011;47004;51.366;12.348;2023-04-24T12:07:21;0.90;;;0.60;;
18190;SDS011;47004;51.366;12.348;2023-04-24T12:09:24;2.80;;;0.80;;